Time;durP1;ratioP1;P1;durP2;ratioP2;P2;SDS_P1;SDS_P2;PMS_P1;PMS_P2;Temp;Humidity;BMP_temperature;BMP_pressure;BME280_temperature;BME280_humidity;BME280_pressure;Samples;Min_cycle;Max_cycle;Signal;HPM_P1;HPM_P2
2022/07/27 00:02:36;;;;;;;1.77;0.85;;;;;;;17.29;82.52;97774.91;18433347;32;20061;-62
2022/07/27 00:12:39;;;;;;;1.55;0.80;;;;;;;17.26;83.75;97779.06;18434313;32;20374;-62
2022/07/27 00:22:41;;;;;;;5.45;0.80;;;;;;;17.22;82.62;97767.16;18433787;32;20087;-62
2022/07/27 00:32:44;;;;;;;1.40;0.80;;;;;;;17.30;82.51;97746.47;18432973;32;20338;-62
2022/07/27 00:42:47;;;;;;;1.20;0.98;;;;;;;17.41;83.03;97738.81;18432374;32;20104;-62
2022/07/27 00:52:54;;;;;;;1.10;0.90;;;;;;;17.39;82.73;97730.09;18430927;32;20076;-62
2022/07/27 01:02:58;;;;;;;1.08;0.73;;;;;;;17.30;83.50;97718.34;18496168;32;20079;-62
2022/07/27 01:13:05;;;;;;;1.95;1.00;;;;;;;17.19;81.20;97710.38;18495474;32;20403;-62
2022/07/27 01:23:14;;;;;;;0.95;0.77;;;;;;;16.94;81.22;97714.59;18481418;32;20069;-62
2022/07/27 01:33:16;;;;;;;1.10;0.90;;;;;;;16.70;82.97;97706.66;18481071;32;20437;-62
2022/07/27 01:43:20;;;;;;;2.10;0.85;;;;;;;16.70;85.27;97703.91;18495060;32;20061;-62
2022/07/27 01:53:26;;;;;;;1.52;0.80;;;;;;;16.74;86.33;97699.47;18494289;32;20060;-62
2022/07/27 02:03:30;;;;;;;2.55;1.00;;;;;;;16.78;86.60;97684.06;18494660;32;20444;-62
2022/07/27 02:13:34;;;;;;;1.60;0.90;;;;;;;16.78;86.49;97687.59;18492979;32;20049;-62
2022/07/27 02:23:39;;;;;;;1.83;1.00;;;;;;;16.80;86.79;97675.56;18499036;32;20072;-62
2022/07/27 02:33:41;;;;;;;3.80;0.80;;;;;;;16.94;87.63;97677.13;18504905;32;20068;-62
2022/07/27 02:43:44;;;;;;;2.03;1.15;;;;;;;17.02;86.16;97672.84;18504344;32;20065;-62
2022/07/27 02:53:47;;;;;;;1.40;0.75;;;;;;;17.00;87.16;97671.56;18503390;32;20393;-62
2022/07/27 03:03:50;;;;;;;;;;;;;;;16.89;88.38;97668.28;18503489;32;20073;-62
2022/07/27 03:13:53;;;;;;;2.42;0.90;;;;;;;16.77;87.52;97661.44;18502675;32;19995;-62
2022/07/27 03:23:56;;;;;;;1.45;0.95;;;;;;;16.81;87.47;97656.13;18500689;32;20076;-62
2022/07/27 03:34:00;;;;;;;1.23;0.97;;;;;;;16.84;87.20;97647.34;18500955;32;20075;-62
2022/07/27 03:44:05;;;;;;;1.40;0.93;;;;;;;16.86;87.19;97655.22;18499858;32;20057;-62
2022/07/27 03:54:08;;;;;;;1.58;0.90;;;;;;;16.88;88.82;97655.69;18485515;32;20101;-62
2022/07/27 04:04:11;;;;;;;1.13;0.77;;;;;;;16.85;87.28;97659.84;18485580;32;20075;-62
2022/07/27 04:14:14;;;;;;;1.70;1.03;;;;;;;16.78;85.76;97656.75;18498494;32;20104;-62
2022/07/27 04:24:18;;;;;;;1.65;1.00;;;;;;;16.74;86.70;97677.63;18498263;32;20046;-62
2022/07/27 04:34:22;;;;;;;3.60;1.08;;;;;;;16.75;86.52;97671.03;18496501;32;20369;-62
2022/07/27 04:44:24;;;;;;;2.43;1.43;;;;;;;16.85;85.50;97678.97;18496359;32;20143;-62
2022/07/27 04:54:27;;;;;;;2.25;1.10;;;;;;;16.98;85.38;97680.06;18496476;32;20049;-62
2022/07/27 05:04:32;;;;;;;4.70;1.27;;;;;;;17.17;81.65;97687.22;18496288;32;20112;-62
2022/07/27 05:14:36;;;;;;;1.70;0.80;;;;;;;17.42;75.44;97692.03;18496054;32;20444;-62
2022/07/27 05:24:39;;;;;;;1.30;1.10;;;;;;;17.68;76.49;97709.66;18495248;32;20376;-62
2022/07/27 05:34:44;;;;;;;2.28;1.10;;;;;;;17.85;75.98;97717.94;18480914;32;20075;-62
2022/07/27 05:44:47;;;;;;;4.47;0.77;;;;;;;18.15;72.80;97729.16;18494808;32;20079;-62
2022/07/27 05:54:50;;;;;;;;;;;;;;;18.74;69.56;97728.75;18481702;32;20079;-62
2022/07/27 06:04:53;;;;;;;3.62;1.30;;;;;;;19.08;70.03;97737.31;18492581;32;20005;-61
2022/07/27 06:14:57;;;;;;;2.20;1.10;;;;;;;19.19;67.73;97743.25;18479181;32;20102;-62
2022/07/27 06:25:00;;;;;;;3.85;1.25;;;;;;;19.32;68.56;97746.94;18504599;32;20112;-61
2022/07/27 06:35:03;;;;;;;2.05;1.00;;;;;;;19.33;65.71;97749.34;18505170;32;20072;-61
2022/07/27 06:45:08;;;;;;;2.90;1.30;;;;;;;19.70;65.01;97749.72;18490572;32;20064;-61
2022/07/27 06:55:10;;;;;;;4.22;1.37;;;;;;;20.09;63.81;97744.25;18489949;32;20358;-61
2022/07/27 07:05:13;;;;;;;2.12;1.27;;;;;;;20.43;62.99;97757.00;18503101;32;20052;-61
2022/07/27 07:15:16;;;;;;;2.35;1.35;;;;;;;20.59;62.83;97748.97;18502037;32;20095;-61
2022/07/27 07:25:19;;;;;;;2.13;1.20;;;;;;;20.86;60.71;97752.34;18501832;32;20065;-61
2022/07/27 07:35:23;;;;;;;1.95;1.42;;;;;;;21.07;59.32;97757.81;18487357;32;20123;-62
2022/07/27 07:45:27;;;;;;;4.17;1.50;;;;;;;21.40;57.23;97753.47;18487070;32;20053;-61
2022/07/27 07:55:30;;;;;;;2.40;1.50;;;;;;;21.70;58.04;97762.41;18499620;32;20113;-61
2022/07/27 08:05:34;;;;;;;3.87;1.33;;;;;;;22.18;56.51;97762.78;18499561;32;20088;-61
2022/07/27 08:15:40;;;;;;;2.55;1.48;;;;;;;22.10;58.31;97766.47;18498877;32;20061;-61
2022/07/27 08:25:45;;;;;;;1.87;1.40;;;;;;;22.17;58.79;97763.94;18498531;32;20072;-61
2022/07/27 08:35:49;;;;;;;4.30;1.62;;;;;;;22.57;57.19;97760.50;18483962;32;20091;-61
2022/07/27 08:45:54;;;;;;;;;;;;;;;23.27;55.70;97759.38;18497290;32;20153;-61
2022/07/27 08:56:04;;;;;;;3.95;1.73;;;;;;;23.47;52.22;97752.00;18483484;32;19984;-61
2022/07/27 09:06:07;;;;;;;3.37;1.50;;;;;;;23.54;52.25;97751.41;18482200;32;20057;-61
2022/07/27 09:16:11;;;;;;;;;;;;;;;23.79;51.89;97742.97;18481823;32;20110;-61
2022/07/27 09:26:28;;;;;;;1.98;1.12;;;;;;;24.00;48.28;97753.78;18495758;32;20302;-61
2022/07/27 09:36:53;;;;;;;2.20;1.02;;;;;;;24.31;50.60;97755.72;18505654;32;20061;-61
2022/07/27 09:46:56;;;;;;;4.20;1.50;;;;;;;24.37;46.89;97747.94;18507856;32;20061;-61
2022/07/27 09:57:01;;;;;;;2.47;1.12;;;;;;;24.47;46.35;97743.81;18507207;32;20124;-61
2022/07/27 10:07:03;;;;;;;2.95;0.82;;;;;;;24.76;43.75;97748.03;18506650;32;20095;-61
2022/07/27 10:17:12;;;;;;;4.00;1.23;;;;;;;25.27;41.77;97760.13;18506754;32;20083;-61
2022/07/27 10:27:28;;;;;;;1.92;0.80;;;;;;;25.35;41.09;97742.53;18505348;32;20061;-62
2022/07/27 10:37:34;;;;;;;0.80;0.60;;;;;;;25.60;39.72;97745.75;18491041;32;20072;-62
2022/07/27 10:47:47;;;;;;;1.15;0.60;;;;;;;26.16;38.17;97749.91;18502510;32;20096;-61
2022/07/27 10:57:50;;;;;;;3.87;0.80;;;;;;;26.60;41.51;97743.00;18503520;32;20417;-61
2022/07/27 11:07:55;;;;;;;1.45;0.90;;;;;;;26.66;39.80;97737.94;18503124;32;20104;-61
2022/07/27 11:18:27;;;;;;;2.15;0.90;;;;;;;26.93;35.49;97724.84;18502754;32;20079;-61
2022/07/27 11:28:31;;;;;;;1.50;0.75;;;;;;;27.19;37.17;97725.94;18475103;32;20061;-61
2022/07/27 11:38:51;;;;;;;3.22;0.77;;;;;;;27.60;37.73;97727.97;18487063;32;20092;-61
2022/07/27 11:49:00;;;;;;;5.15;1.20;;;;;;;27.85;36.23;97708.75;18486649;32;20433;-61
2022/07/27 11:59:17;;;;;;;2.40;0.82;;;;;;;27.35;38.17;97693.19;18499486;32;20117;-61
2022/07/27 12:09:21;;;;;;;4.03;1.13;;;;;;;29.02;38.26;97687.59;18499476;32;20079;-61
2022/07/27 12:19:24;;;;;;;1.10;0.80;;;;;;;29.14;34.65;97685.66;18471859;32;20091;-61
2022/07/27 12:29:27;;;;;;;2.12;0.90;;;;;;;26.95;38.70;97680.84;18497899;32;20451;-61
2022/07/27 12:39:31;;;;;;;2.67;1.17;;;;;;;27.97;40.81;97675.09;18496607;32;20117;-61
2022/07/27 12:49:34;;;;;;;2.00;1.12;;;;;;;29.13;39.94;97676.50;18482841;32;20069;-61
2022/07/27 12:59:38;;;;;;;3.05;0.90;;;;;;;28.79;38.88;97670.44;18495258;32;20061;-61
2022/07/27 13:09:41;;;;;;;1.77;1.00;;;;;;;28.81;33.65;97670.84;18495379;32;20068;-61
2022/07/27 13:20:09;;;;;;;1.55;1.10;;;;;;;28.82;35.32;97666.84;18495992;32;20346;-61
2022/07/27 13:30:14;;;;;;;2.97;1.05;;;;;;;30.39;39.48;97657.00;18493933;32;20112;-61
2022/07/27 13:40:16;;;;;;;3.05;1.25;;;;;;;30.91;32.70;97656.44;18494973;32;20060;-61
2022/07/27 13:50:20;;;;;;;1.15;0.98;;;;;;;31.09;33.34;97659.19;18495217;32;20061;-61
2022/07/27 14:00:25;;;;;;;2.78;1.40;;;;;;;31.97;33.51;97657.31;18494435;32;20057;-61
2022/07/27 14:10:30;;;;;;;1.20;1.10;;;;;;;32.07;36.00;97638.87;18494087;32;20101;-61
2022/07/27 14:20:33;;;;;;;1.85;1.05;;;;;;;32.13;29.72;97637.19;18499495;32;20368;-61
2022/07/27 14:30:36;;;;;;;2.92;1.05;;;;;;;32.74;29.05;97624.53;18491300;32;20052;-61
2022/07/27 14:40:39;;;;;;;2.00;1.27;;;;;;;33.41;32.32;97622.00;18490781;32;20065;-61
2022/07/27 14:50:42;;;;;;;2.55;1.40;;;;;;;33.37;30.29;97621.28;18504602;32;20065;-61
2022/07/27 15:00:46;;;;;;;2.10;1.02;;;;;;;32.98;29.24;97593.81;18503329;32;20056;-61
2022/07/27 15:10:49;;;;;;;1.80;1.00;;;;;;;32.26;29.04;97578.72;18488629;32;20069;-61
2022/07/27 15:20:52;;;;;;;2.37;1.15;;;;;;;30.11;31.01;97576.22;18502339;32;20089;-61
2022/07/27 15:30:55;;;;;;;1.90;1.30;;;;;;;29.53;33.99;97567.94;18501509;32;20069;-61
2022/07/27 15:40:58;;;;;;;1.27;1.10;;;;;;;29.32;34.32;97561.19;18501181;32;20072;-61
2022/07/27 15:51:00;;;;;;;2.25;1.52;;;;;;;28.63;33.15;97554.72;18499493;32;20079;-61
2022/07/27 16:01:06;;;;;;;1.60;1.20;;;;;;;27.71;34.32;97546.31;18499803;32;20053;-61
2022/07/27 16:11:13;;;;;;;1.65;1.10;;;;;;;27.32;37.71;97541.25;18499245;32;20061;-61
2022/07/27 16:21:16;;;;;;;2.45;1.15;;;;;;;27.14;34.85;97540.31;18499151;32;20067;-61
2022/07/27 16:31:19;;;;;;;2.42;1.30;;;;;;;27.00;35.79;97533.47;18498087;32;20069;-61
2022/07/27 16:41:22;;;;;;;2.15;1.17;;;;;;;27.48;35.17;97520.78;18497474;32;20065;-61
2022/07/27 16:51:25;;;;;;;1.98;1.15;;;;;;;26.92;35.66;97515.16;18495947;32;20109;-61
2022/07/27 17:01:27;;;;;;;4.18;1.45;;;;;;;26.60;36.83;97520.34;18496292;32;20496;-61
2022/07/27 17:11:30;;;;;;;2.62;1.20;;;;;;;26.84;36.16;97508.75;18495904;32;20069;-61
2022/07/27 17:21:38;;;;;;;2.42;1.10;;;;;;;26.28;37.44;97507.75;18496009;32;20390;-61
2022/07/27 17:31:41;;;;;;;1.80;1.20;;;;;;;25.86;37.55;97517.91;18494668;32;20105;-61
2022/07/27 17:41:44;;;;;;;3.25;1.35;;;;;;;25.57;38.87;97507.59;18481113;32;20053;-61
2022/07/27 17:51:46;;;;;;;;;;;;;;;25.25;38.88;97507.91;18497034;32;20053;-61
2022/07/27 18:01:49;;;;;;;1.62;1.25;;;;;;;24.97;39.89;97509.81;18507183;32;20280;-61
2022/07/27 18:11:52;;;;;;;2.83;1.50;;;;;;;24.70;42.47;97509.75;18506554;32;20052;-61
2022/07/27 18:21:54;;;;;;;2.30;1.37;;;;;;;24.33;42.31;97512.19;18492382;32;20189;-61
2022/07/27 18:31:57;;;;;;;;;;;;;;;24.03;43.22;97518.31;18491801;32;20117;-61
2022/07/27 18:42:02;;;;;;;2.05;1.35;;;;;;;23.72;44.68;97513.66;18491033;32;19952;-61
2022/07/27 18:52:05;;;;;;;3.83;1.50;;;;;;;23.28;47.08;97532.03;18504366;32;20107;-61
2022/07/27 19:02:07;;;;;;;3.05;1.40;;;;;;;22.82;49.03;97529.66;18502322;32;20045;-61
2022/07/27 19:12:10;;;;;;;1.62;1.23;;;;;;;22.40;51.27;97543.91;18502871;32;20075;-61
2022/07/27 19:22:13;;;;;;;2.25;1.20;;;;;;;21.87;54.79;97543.12;18475920;32;20053;-61
2022/07/27 19:32:16;;;;;;;5.37;1.45;;;;;;;21.45;57.80;97547.75;18501616;32;20086;-61
2022/07/27 19:42:19;;;;;;;3.83;1.33;;;;;;;21.01;61.06;97550.28;18501347;32;20452;-61
2022/07/27 19:52:22;;;;;;;1.92;1.23;;;;;;;20.64;63.94;97553.72;18473758;32;20041;-61
2022/07/27 20:02:24;;;;;;;2.33;1.50;;;;;;;20.26;65.34;97559.41;18499968;32;20069;-61
2022/07/27 20:12:27;;;;;;;3.05;1.40;;;;;;;19.87;66.96;97566.97;18485147;32;20080;-61
2022/07/27 20:22:31;;;;;;;1.55;1.27;;;;;;;19.61;69.02;97570.66;18499536;32;20444;-61
2022/07/27 20:32:34;;;;;;;3.87;1.40;;;;;;;19.36;68.60;97569.69;18498288;32;20061;-61
2022/07/27 20:42:38;;;;;;;;;;;;;;;19.07;69.05;97563.03;18497866;32;20183;-61
2022/07/27 20:52:43;;;;;;;3.03;1.60;;;;;;;18.79;68.90;97556.00;18497141;32;19992;-61
2022/07/27 21:02:47;;;;;;;2.10;1.40;;;;;;;18.51;71.23;97547.37;18495505;32;20437;-61
2022/07/27 21:12:50;;;;;;;2.35;1.50;;;;;;;18.24;74.34;97552.09;18481980;32;20425;-61
2022/07/27 21:33:14;;;;;;;1.75;1.30;;;;;;;17.76;74.47;97558.47;18495087;32;20069;-61
2022/07/27 21:43:17;;;;;;;3.10;1.50;;;;;;;17.56;76.35;97568.91;18480671;32;20071;-61
2022/07/27 21:53:19;;;;;;;1.93;1.73;;;;;;;17.33;76.97;97570.13;18493508;32;20145;-61
2022/07/27 22:03:23;;;;;;;2.05;1.40;;;;;;;17.15;78.82;97572.00;18494834;32;20068;-61
2022/07/27 22:13:26;;;;;;;2.45;1.45;;;;;;;16.96;78.91;97572.25;18479986;32;20378;-61
2022/07/27 22:23:29;;;;;;;2.00;1.52;;;;;;;16.78;79.52;97569.37;18492970;32;20076;-61
2022/07/27 22:33:32;;;;;;;2.72;1.48;;;;;;;16.58;81.00;97582.44;18493762;32;20053;-61
2022/07/27 22:43:35;;;;;;;1.85;1.42;;;;;;;16.42;82.22;97586.69;18487965;32;20097;-61
2022/07/27 22:53:37;;;;;;;2.83;1.62;;;;;;;16.21;82.19;97587.16;18503714;32;20057;-61
2022/07/27 23:03:39;;;;;;;3.35;1.73;;;;;;;16.06;83.02;97593.78;18503895;32;20057;-61
2022/07/27 23:13:42;;;;;;;4.57;1.40;;;;;;;16.01;84.12;97598.53;18503139;32;20101;-61
2022/07/27 23:23:45;;;;;;;2.55;1.90;;;;;;;15.85;84.62;97595.34;18488216;32;20069;-61
2022/07/27 23:33:54;;;;;;;2.58;1.60;;;;;;;15.75;85.48;97574.53;18488619;32;20065;-61
2022/07/27 23:43:57;;;;;;;2.65;1.45;;;;;;;15.59;85.61;97563.97;18487167;32;20061;-61
2022/07/27 23:53:59;;;;;;;2.10;1.50;;;;;;;15.43;86.39;97559.97;18499701;32;20070;-61
